createdAt,value
2019-02-16T00:00:54.478Z,8.70
2019-02-16T00:03:23.767Z,9.95
2019-02-16T00:05:53.131Z,10.53
2019-02-16T00:08:22.370Z,9.03
2019-02-16T00:10:51.699Z,6.90
2019-02-16T00:13:21.003Z,10.20
2019-02-16T00:15:50.278Z,8.40
2019-02-16T00:18:19.626Z,9.98
2019-02-16T00:20:48.898Z,7.20
2019-02-16T00:23:18.149Z,8.75
2019-02-16T00:25:47.395Z,9.68
2019-02-16T00:28:16.672Z,11.03
2019-02-16T00:30:45.920Z,9.28
2019-02-16T00:33:15.195Z,8.60
2019-02-16T00:35:44.490Z,9.38
2019-02-16T00:38:13.746Z,9.95
2019-02-16T00:40:43.036Z,10.45
2019-02-16T00:43:12.271Z,9.70
2019-02-16T00:45:41.549Z,10.00
2019-02-16T00:48:10.819Z,10.58
2019-02-16T00:50:40.172Z,9.30
2019-02-16T00:53:09.469Z,9.95
2019-02-16T00:55:38.725Z,10.45
2019-02-16T00:58:08.008Z,11.12
2019-02-16T01:00:37.386Z,10.48
2019-02-16T01:03:06.676Z,10.53
2019-02-16T01:05:35.958Z,10.80
2019-02-16T01:08:05.201Z,9.80
2019-02-16T01:10:34.445Z,10.87
2019-02-16T01:13:03.724Z,10.10
2019-02-16T01:15:32.991Z,9.55
2019-02-16T01:18:02.256Z,9.35
2019-02-16T01:20:31.494Z,10.20
2019-02-16T01:23:00.797Z,10.80
2019-02-16T01:25:30.048Z,12.70
2019-02-16T01:27:59.305Z,9.45
2019-02-16T01:30:28.539Z,10.60
2019-02-16T01:32:57.950Z,10.53
2019-02-16T01:35:30.303Z,12.03
2019-02-16T01:37:59.574Z,12.40
2019-02-16T01:40:28.786Z,12.98
2019-02-16T01:42:58.059Z,12.50
2019-02-16T01:45:27.311Z,10.18
2019-02-16T01:47:56.599Z,12.37
2019-02-16T01:50:25.927Z,9.93
2019-02-16T01:52:55.180Z,10.43
2019-02-16T01:55:24.440Z,10.48
2019-02-16T01:57:53.680Z,11.18
2019-02-16T02:00:23.007Z,9.57
2019-02-16T02:02:52.255Z,8.80
2019-02-16T02:05:21.576Z,10.47
2019-02-16T02:07:50.834Z,9.95
2019-02-16T02:10:20.165Z,10.17
2019-02-16T02:12:49.375Z,11.90
2019-02-16T02:15:18.635Z,9.20
2019-02-16T02:17:48.125Z,11.25
2019-02-16T02:20:17.507Z,13.13
2019-02-16T02:22:46.768Z,12.07
2019-02-16T02:25:16.010Z,12.40
2019-02-16T02:27:45.220Z,10.55
2019-02-16T02:30:14.526Z,11.45
2019-02-16T02:32:43.812Z,10.30
2019-02-16T02:35:13.189Z,11.77
2019-02-16T02:37:42.425Z,11.63
2019-02-16T02:40:11.753Z,14.05
2019-02-16T02:42:41.197Z,13.30
2019-02-16T02:45:11.081Z,12.05
2019-02-16T02:47:40.356Z,12.73
2019-02-16T02:50:09.732Z,14.87
2019-02-16T02:52:38.935Z,12.80
2019-02-16T02:55:08.414Z,20.95
2019-02-16T02:57:37.689Z,16.97
2019-02-16T03:00:08.115Z,15.98
2019-02-16T03:02:37.375Z,15.45
2019-02-16T03:05:08.733Z,13.70
2019-02-16T03:07:37.954Z,14.55
2019-02-16T03:10:07.708Z,15.30
2019-02-16T03:12:37.015Z,14.75
2019-02-16T03:15:06.952Z,13.60
2019-02-16T03:17:36.319Z,13.80
2019-02-16T03:20:06.038Z,17.77
2019-02-16T03:23:12.635Z,14.55
2019-02-16T03:25:43.635Z,16.57
2019-02-16T03:28:38.873Z,13.53
2019-02-16T03:31:33.971Z,13.75
2019-02-16T03:34:09.370Z,15.72
2019-02-16T03:37:11.087Z,16.77
2019-02-16T03:39:44.043Z,15.40
2019-02-16T03:42:13.315Z,16.32
2019-02-16T03:44:42.556Z,16.15
2019-02-16T03:47:11.798Z,14.83
2019-02-16T03:49:41.041Z,16.95
2019-02-16T03:52:13.948Z,14.47
2019-02-16T03:54:41.472Z,16.12
2019-02-16T03:57:10.737Z,14.07
2019-02-16T03:59:40.033Z,14.05
2019-02-16T04:02:09.294Z,14.47
2019-02-16T04:04:38.565Z,13.72
2019-02-16T04:07:07.836Z,12.40
2019-02-16T04:09:37.103Z,12.40
2019-02-16T04:12:06.355Z,14.83
2019-02-16T04:14:35.628Z,18.10
2019-02-16T04:17:04.896Z,13.75
2019-02-16T04:19:34.114Z,14.47
2019-02-16T04:22:03.369Z,15.70
2019-02-16T04:24:32.637Z,15.90
2019-02-16T04:27:01.865Z,15.70
2019-02-16T04:29:31.248Z,13.80
2019-02-16T04:32:00.491Z,14.63
2019-02-16T04:34:32.492Z,14.43
2019-02-16T04:37:01.820Z,17.15
2019-02-16T04:39:31.072Z,16.95
2019-02-16T04:42:00.288Z,15.32
2019-02-16T04:44:29.501Z,16.12
2019-02-16T04:46:58.730Z,12.53
2019-02-16T04:49:28.009Z,15.58
2019-02-16T04:51:57.253Z,17.02
2019-02-16T04:54:26.501Z,14.58
2019-02-16T04:56:55.800Z,15.60
2019-02-16T04:59:25.157Z,13.68
2019-02-16T05:01:54.543Z,11.55
2019-02-16T05:04:23.853Z,15.30
2019-02-16T05:06:53.231Z,13.72
2019-02-16T05:09:22.448Z,14.40
2019-02-16T05:11:52.012Z,12.47
2019-02-16T05:14:21.266Z,15.25
2019-02-16T05:16:50.507Z,13.48
2019-02-16T05:19:19.697Z,16.00
2019-02-16T05:21:48.963Z,17.30
2019-02-16T05:24:18.269Z,18.12
2019-02-16T05:26:47.528Z,20.43
2019-02-16T05:29:16.841Z,18.55
2019-02-16T05:31:46.447Z,18.92
2019-02-16T05:34:15.685Z,21.17
2019-02-16T05:36:44.961Z,20.92
2019-02-16T05:39:14.185Z,17.67
2019-02-16T05:41:43.462Z,18.55
2019-02-16T05:44:12.701Z,18.80
2019-02-16T05:46:42.049Z,19.27
2019-02-16T05:49:11.269Z,17.92
2019-02-16T05:51:40.539Z,21.73
2019-02-16T05:54:09.753Z,20.08
2019-02-16T05:56:39.027Z,23.32
2019-02-16T05:59:08.374Z,24.18
2019-02-16T06:01:37.633Z,20.05
2019-02-16T06:04:06.962Z,22.70
2019-02-16T06:06:36.179Z,19.95
2019-02-16T06:09:06.347Z,19.75
2019-02-16T06:11:35.569Z,19.95
2019-02-16T06:14:04.956Z,24.57
2019-02-16T06:16:34.240Z,24.63
2019-02-16T06:19:03.605Z,24.15
2019-02-16T06:21:32.875Z,22.73
2019-02-16T06:24:02.745Z,22.02
2019-02-16T06:26:32.031Z,21.25
2019-02-16T06:29:01.329Z,23.18
2019-02-16T06:31:30.638Z,21.77
2019-02-16T06:33:59.932Z,23.50
2019-02-16T06:36:36.413Z,23.57
2019-02-16T06:39:06.431Z,20.77
2019-02-16T06:41:35.741Z,24.43
2019-02-16T06:44:05.003Z,22.17
2019-02-16T06:46:34.328Z,21.95
2019-02-16T06:49:03.613Z,23.90
2019-02-16T06:51:32.864Z,21.75
2019-02-16T06:54:02.168Z,19.20
2019-02-16T06:56:39.476Z,20.95
2019-02-16T06:59:08.754Z,17.92
2019-02-16T07:01:38.039Z,16.93
2019-02-16T07:04:07.389Z,19.17
2019-02-16T07:06:36.689Z,19.30
2019-02-16T07:09:06.608Z,20.08
2019-02-16T07:11:36.167Z,20.25
2019-02-16T07:14:05.678Z,18.37
2019-02-16T07:16:54.367Z,17.00
2019-02-16T07:19:45.407Z,17.62
2019-02-16T07:22:19.859Z,20.30
2019-02-16T07:24:49.116Z,19.15
2019-02-16T07:27:18.422Z,18.67
2019-02-16T07:29:47.720Z,18.73
2019-02-16T07:32:17.459Z,18.62
2019-02-16T07:34:46.720Z,18.60
2019-02-16T07:37:15.990Z,20.45
2019-02-16T07:39:45.299Z,20.15
2019-02-16T07:42:14.551Z,19.07
2019-02-16T07:44:51.825Z,21.37
2019-02-16T07:47:55.302Z,17.42
2019-02-16T07:50:41.717Z,17.77
2019-02-16T07:53:16.689Z,20.48
2019-02-16T07:55:52.853Z,19.15
2019-02-16T07:58:53.305Z,21.73
2019-02-16T08:01:38.052Z,21.97
2019-02-16T08:04:38.481Z,19.80
2019-02-16T08:07:29.501Z,25.40
2019-02-16T08:10:16.601Z,25.27
2019-02-16T08:12:53.266Z,25.00
2019-02-16T08:15:41.472Z,25.17
2019-02-16T08:18:34.570Z,25.30
2019-02-16T08:21:11.163Z,26.75
2019-02-16T08:23:58.541Z,28.77
2019-02-16T08:26:52.985Z,27.52
2019-02-16T08:29:47.268Z,24.35
2019-02-16T08:32:22.844Z,23.55
2019-02-16T08:35:11.046Z,28.25
2019-02-16T08:38:05.510Z,26.90
2019-02-16T08:40:42.928Z,27.00
2019-02-16T08:43:46.308Z,26.62
2019-02-16T08:46:40.694Z,28.30
2019-02-16T08:49:27.795Z,30.30
2019-02-16T08:52:14.323Z,26.33
2019-02-16T08:55:05.340Z,22.05
2019-02-16T08:57:52.179Z,25.05
2019-02-16T09:00:49.457Z,22.22
2019-02-16T09:03:52.869Z,21.00
2019-02-16T09:06:28.671Z,18.55
2019-02-16T09:09:25.305Z,19.10
2019-02-16T09:12:22.750Z,19.32
2019-02-16T09:15:09.270Z,21.00
2019-02-16T09:17:57.601Z,22.62
2019-02-16T09:20:57.917Z,30.55
2019-02-16T09:23:44.891Z,26.27
2019-02-16T09:26:45.258Z,22.70
2019-02-16T09:29:36.234Z,29.55
2019-02-16T09:32:24.562Z,24.40
2019-02-16T09:34:59.744Z,26.87
2019-02-16T09:37:46.874Z,28.32
2019-02-16T09:40:34.022Z,29.13
2019-02-16T09:43:14.163Z,24.92
2019-02-16T09:46:01.079Z,27.98
2019-02-16T09:48:35.507Z,27.13
2019-02-16T09:51:21.991Z,20.95
2019-02-16T09:54:10.500Z,24.45
2019-02-16T09:56:47.572Z,22.80
2019-02-16T09:59:30.966Z,22.02
2019-02-16T10:02:15.485Z,20.55
2019-02-16T10:05:06.349Z,20.57
2019-02-16T10:07:54.675Z,20.77
2019-02-16T10:10:30.384Z,19.10
2019-02-16T10:13:20.842Z,20.32
2019-02-16T10:16:03.943Z,21.95
2019-02-16T10:18:43.907Z,25.40
2019-02-16T10:21:32.196Z,21.60
2019-02-16T10:24:29.657Z,22.95
2019-02-16T10:27:27.241Z,24.57
2019-02-16T10:30:15.562Z,20.90
2019-02-16T10:33:02.662Z,21.60
2019-02-16T10:36:09.193Z,21.37
2019-02-16T10:39:08.426Z,20.75
2019-02-16T10:41:56.894Z,21.80
2019-02-16T10:44:48.095Z,23.67
2019-02-16T10:47:42.532Z,22.75
2019-02-16T10:50:36.802Z,23.95
2019-02-16T10:53:17.338Z,22.22
2019-02-16T10:56:20.799Z,26.65
2019-02-16T11:02:08.147Z,26.45
2019-02-16T11:04:59.342Z,23.73
2019-02-16T11:07:47.657Z,29.57
2019-02-16T11:10:34.698Z,27.53
2019-02-16T11:13:21.795Z,28.27
2019-02-16T11:16:08.968Z,25.90
2019-02-16T11:19:09.205Z,27.32
2019-02-16T11:22:04.385Z,29.72
2019-02-16T11:24:58.638Z,28.73
2019-02-16T11:27:49.982Z,30.52
2019-02-16T11:30:44.372Z,27.17
2019-02-16T11:33:38.781Z,25.37
2019-02-16T11:36:33.132Z,30.90
2019-02-16T11:39:14.805Z,28.42
2019-02-16T11:42:03.002Z,29.70
2019-02-16T11:44:51.253Z,29.12
2019-02-16T11:47:47.536Z,29.77
2019-02-16T11:50:35.665Z,28.70
2019-02-16T11:53:27.277Z,27.62
2019-02-16T11:56:13.521Z,32.78
2019-02-16T11:59:08.180Z,32.95
2019-02-16T12:01:47.009Z,43.10
2019-02-16T12:04:37.086Z,41.25
2019-02-16T12:07:15.989Z,31.50
2019-02-16T12:10:10.485Z,32.65
2019-02-16T12:13:07.957Z,31.15
2019-02-16T12:15:55.338Z,26.80
2019-02-16T12:18:35.409Z,30.77
2019-02-16T12:21:17.545Z,27.73
2019-02-16T12:23:56.940Z,27.50
2019-02-16T12:26:40.698Z,27.85
2019-02-16T12:29:29.605Z,30.97
2019-02-16T12:32:27.030Z,26.00
2019-02-16T12:35:13.806Z,26.95
2019-02-16T12:37:52.714Z,28.30
2019-02-16T12:40:28.230Z,27.83
2019-02-16T12:43:10.414Z,28.70
2019-02-16T12:48:54.298Z,25.90
2019-02-16T12:51:33.911Z,25.37
2019-02-16T12:54:25.165Z,29.95
2019-02-16T12:57:04.113Z,27.00
2019-02-16T12:59:51.138Z,26.85
2019-02-16T13:02:38.178Z,24.07
2019-02-16T13:05:31.003Z,25.75
2019-02-16T13:08:31.374Z,25.50
2019-02-16T13:11:10.062Z,21.75
2019-02-16T13:13:50.751Z,28.05
2019-02-16T13:16:38.927Z,23.50
2019-02-16T13:19:31.696Z,26.07
2019-02-16T13:29:26.743Z,32.75
2019-02-16T13:32:25.857Z,32.40
2019-02-16T13:35:08.322Z,31.65
2019-02-16T13:42:11.650Z,27.82
2019-02-16T13:44:58.777Z,23.95
2019-02-16T13:47:36.582Z,26.83
2019-02-16T13:50:20.357Z,27.48
2019-02-16T13:53:10.427Z,24.32
2019-02-16T13:56:04.669Z,26.33
2019-02-16T13:58:43.472Z,26.52
2019-02-16T14:01:32.762Z,25.62
2019-02-16T14:04:38.634Z,26.73
2019-02-16T14:07:25.386Z,27.87
2019-02-16T14:10:22.722Z,29.77
2019-02-16T14:13:29.095Z,28.10
2019-02-16T14:16:12.761Z,28.57
2019-02-16T14:18:43.306Z,30.45
2019-02-16T14:21:12.687Z,30.10
2019-02-16T14:23:41.974Z,31.15
2019-02-16T14:26:11.346Z,29.87
2019-02-16T14:28:40.638Z,29.60
2019-02-16T14:31:10.250Z,28.17
2019-02-16T14:33:39.532Z,27.80
2019-02-16T14:36:08.856Z,27.65
2019-02-16T14:38:46.238Z,26.70
2019-02-16T14:41:15.718Z,29.63
2019-02-16T14:43:45.032Z,25.40
2019-02-16T14:46:14.400Z,26.62
2019-02-16T14:48:43.657Z,28.02
2019-02-16T14:51:12.962Z,26.42
2019-02-16T14:53:42.402Z,28.65
2019-02-16T14:56:11.695Z,28.30
2019-02-16T14:58:40.977Z,26.68
2019-02-16T15:01:10.294Z,30.68
2019-02-16T15:03:39.671Z,30.45
2019-02-16T15:06:09.000Z,30.37
2019-02-16T15:08:38.395Z,27.82
2019-02-16T15:11:07.655Z,28.05
2019-02-16T15:13:36.982Z,30.32
2019-02-16T15:16:07.287Z,31.62
2019-02-16T15:18:36.657Z,30.27
2019-02-16T15:21:08.353Z,32.13
2019-02-16T15:23:38.628Z,34.35
2019-02-16T15:26:08.084Z,35.25
2019-02-16T15:28:37.547Z,34.65
2019-02-16T15:31:06.849Z,29.72
2019-02-16T15:33:36.219Z,30.60
2019-02-16T15:36:05.712Z,33.02
2019-02-16T15:38:35.101Z,35.20
2019-02-16T15:41:04.415Z,39.85
2019-02-16T15:43:33.801Z,38.53
2019-02-16T15:46:03.154Z,34.55
2019-02-16T15:48:32.555Z,33.67
2019-02-16T15:51:01.800Z,28.70
2019-02-16T15:53:31.158Z,31.30
2019-02-16T15:56:09.857Z,30.60
2019-02-16T15:58:31.623Z,34.08
2019-02-16T16:01:01.045Z,29.40
2019-02-16T16:03:32.141Z,30.17
2019-02-16T16:06:01.437Z,36.28
2019-02-16T16:08:49.711Z,34.45
2019-02-16T16:11:44.065Z,35.50
2019-02-16T16:14:35.406Z,34.67
2019-02-16T16:17:29.461Z,32.80
2019-02-16T16:20:24.362Z,36.20
2019-02-16T16:23:27.947Z,38.23
2019-02-16T16:26:05.153Z,34.78
2019-02-16T16:29:02.314Z,40.58
2019-02-16T16:31:56.626Z,38.92
2019-02-16T16:34:43.916Z,41.75
2019-02-16T16:37:37.994Z,36.68
2019-02-16T16:40:22.667Z,35.48
2019-02-16T16:43:10.931Z,37.08
2019-02-16T16:45:47.642Z,33.00
2019-02-16T16:48:28.748Z,40.90
2019-02-16T16:51:15.994Z,44.60
2019-02-16T16:54:09.085Z,40.75
2019-02-16T16:57:00.507Z,35.38
2019-02-16T16:59:57.920Z,63.02
2019-02-16T17:02:44.862Z,54.98
2019-02-16T17:05:33.157Z,45.40
2019-02-16T17:08:24.657Z,142.55
2019-02-16T17:11:24.611Z,46.08
2019-02-16T17:14:11.740Z,35.85
2019-02-16T17:17:01.178Z,71.33
2019-02-16T17:19:40.843Z,66.33
2019-02-16T17:22:29.119Z,59.77
2019-02-16T17:25:22.479Z,49.77
2019-02-16T17:28:09.671Z,50.80
2019-02-16T17:30:51.488Z,43.78
2019-02-16T17:33:33.074Z,49.13
2019-02-16T17:36:20.222Z,61.58
2019-02-16T17:39:10.964Z,52.35
2019-02-16T17:42:02.348Z,43.73
2019-02-16T17:45:03.126Z,40.70
2019-02-16T17:47:57.035Z,47.85
2019-02-16T17:50:54.671Z,47.90
2019-02-16T17:53:48.918Z,44.98
2019-02-16T17:56:26.463Z,45.88
2019-02-16T17:59:02.570Z,40.30
2019-02-16T18:02:05.932Z,44.15
2019-02-16T18:07:40.241Z,51.33
2019-02-16T18:10:15.850Z,81.22
2019-02-16T18:13:03.000Z,59.70
2019-02-16T18:15:42.092Z,57.38
2019-02-16T18:18:30.458Z,53.02
2019-02-16T18:21:21.784Z,52.38
2019-02-16T18:24:08.367Z,54.77
2019-02-16T18:26:59.590Z,55.88
2019-02-16T18:30:00.027Z,53.13
2019-02-16T18:32:47.001Z,50.50
2019-02-16T18:35:34.231Z,53.78
2019-02-16T18:38:16.524Z,62.00
2019-02-16T18:41:03.647Z,62.88
2019-02-16T18:44:12.719Z,58.98
2019-02-16T18:47:08.356Z,51.88
2019-02-16T18:49:44.978Z,53.40
2019-02-16T18:52:39.377Z,50.10
2019-02-16T18:55:22.888Z,44.95
2019-02-16T18:58:09.801Z,51.58
2019-02-16T19:00:55.312Z,46.10
2019-02-16T19:03:52.588Z,47.70
2019-02-16T19:06:45.019Z,50.80
2019-02-16T19:09:30.171Z,39.48
2019-02-16T19:12:32.454Z,52.17
2019-02-16T19:15:27.455Z,46.90
2019-02-16T19:18:18.565Z,64.53
2019-02-16T19:21:07.775Z,133.30
2019-02-16T19:23:44.845Z,71.37
2019-02-16T19:26:40.799Z,75.15
2019-02-16T19:29:43.988Z,74.55
2019-02-16T19:32:40.780Z,81.47
2019-02-16T19:35:57.054Z,75.67
2019-02-16T19:38:40.850Z,60.83
2019-02-16T19:41:57.003Z,51.33
2019-02-16T19:44:41.250Z,50.78
2019-02-16T19:47:29.762Z,53.63
2019-02-16T19:50:40.901Z,56.20
2019-02-16T19:53:13.957Z,53.20
2019-02-16T19:56:07.842Z,53.70
2019-02-16T19:58:59.159Z,55.90
2019-02-16T20:01:50.591Z,51.50
2019-02-16T20:04:57.297Z,56.60
2019-02-16T20:07:39.711Z,51.88
2019-02-16T20:10:40.490Z,53.78
2019-02-16T20:13:38.209Z,50.73
2019-02-16T20:16:27.605Z,50.90
2019-02-16T20:19:34.486Z,58.55
2019-02-16T20:22:21.629Z,52.97
2019-02-16T20:25:19.272Z,55.92
2019-02-16T20:27:59.246Z,53.75
2019-02-16T20:30:50.579Z,58.92
2019-02-16T20:33:48.168Z,62.98
2019-02-16T20:36:34.904Z,61.40
2019-02-16T20:39:23.194Z,56.10
2019-02-16T20:42:04.084Z,57.00
2019-02-16T20:44:43.079Z,53.42
2019-02-16T20:47:38.013Z,60.23
2019-02-16T20:50:30.132Z,56.98
2019-02-16T20:53:17.319Z,61.02
2019-02-16T20:56:11.463Z,57.35
2019-02-16T20:59:03.751Z,55.80
2019-02-16T21:01:52.263Z,59.70
2019-02-16T21:04:32.844Z,60.28
2019-02-16T21:07:30.458Z,61.83
2019-02-16T21:10:17.406Z,63.52
2019-02-16T21:13:05.799Z,66.05
2019-02-16T21:15:40.848Z,62.00
2019-02-16T21:18:26.198Z,65.75
2019-02-16T21:21:14.665Z,62.55
2019-02-16T21:23:59.591Z,65.00
2019-02-16T21:26:39.865Z,60.12
2019-02-16T21:29:17.884Z,63.23
2019-02-16T21:32:12.269Z,66.55
2019-02-16T21:35:03.496Z,66.77
2019-02-16T21:37:55.108Z,65.87
2019-02-16T21:40:33.627Z,65.47
2019-02-16T21:43:24.789Z,66.40
2019-02-16T21:46:12.160Z,64.97
2019-02-16T21:48:47.442Z,71.05
2019-02-16T21:51:34.416Z,64.55
2019-02-16T21:54:13.115Z,64.42
2019-02-16T21:57:07.508Z,57.48
2019-02-16T21:59:59.041Z,57.80
2019-02-16T22:02:47.299Z,61.98
2019-02-16T22:05:35.575Z,63.90
2019-02-16T22:08:32.082Z,62.70
2019-02-16T22:11:23.684Z,60.90
2019-02-16T22:13:53.019Z,65.65
2019-02-16T22:16:22.377Z,62.73
2019-02-16T22:18:51.698Z,60.43
2019-02-16T22:21:21.009Z,62.08
2019-02-16T22:23:50.308Z,55.52
2019-02-16T22:26:19.652Z,59.63
2019-02-16T22:28:49.006Z,61.68
2019-02-16T22:31:18.364Z,66.62
2019-02-16T22:33:47.650Z,66.97
2019-02-16T22:36:17.023Z,66.67
2019-02-16T22:38:46.299Z,70.37
2019-02-16T22:41:15.614Z,68.87
2019-02-16T22:43:44.983Z,65.25
2019-02-16T22:46:14.233Z,64.67
2019-02-16T22:48:43.509Z,64.58
2019-02-16T22:51:12.862Z,65.35
2019-02-16T22:53:42.139Z,75.08
2019-02-16T22:56:11.437Z,77.70
2019-02-16T22:58:40.880Z,73.10
2019-02-16T23:01:10.603Z,73.67
2019-02-16T23:03:39.898Z,70.92
2019-02-16T23:06:09.302Z,70.10
2019-02-16T23:08:38.723Z,72.97
2019-02-16T23:11:08.082Z,79.65
2019-02-16T23:13:37.515Z,107.00
2019-02-16T23:16:06.845Z,91.65
2019-02-16T23:18:36.116Z,81.67
2019-02-16T23:21:05.445Z,85.05
2019-02-16T23:23:34.914Z,85.20
2019-02-16T23:26:04.329Z,87.10
2019-02-16T23:28:39.001Z,87.90
2019-02-16T23:31:04.648Z,92.02
2019-02-16T23:33:33.927Z,92.85
2019-02-16T23:36:03.258Z,96.20
2019-02-16T23:38:32.525Z,93.45
2019-02-16T23:41:01.800Z,85.07
2019-02-16T23:43:31.062Z,88.82
2019-02-16T23:46:00.329Z,90.57
2019-02-16T23:48:29.680Z,91.87
2019-02-16T23:50:58.940Z,83.92
2019-02-16T23:53:28.244Z,85.22
2019-02-16T23:55:57.520Z,82.67
2019-02-16T23:58:26.800Z,86.45
